Time;durP1;ratioP1;P1;durP2;ratioP2;P2;SDS_P1;SDS_P2;PMS_P1;PMS_P2;Temp;Humidity;BMP_temperature;BMP_pressure;BME280_temperature;BME280_humidity;BME280_pressure;Samples;Min_cycle;Max_cycle;Signal;HPM_P1;HPM_P2
2023/10/29 00:01:00;;;;;;;3.00;1.52;;;;;;;;;;5035507;28;20462;-69
2023/10/29 00:03:27;;;;;;;2.42;1.33;;;;;;;;;;5041340;28;20439;-69
2023/10/29 00:05:57;;;;;;;2.47;1.10;;;;;;;;;;5042080;28;20797;-68
2023/10/29 00:08:24;;;;;;;4.88;1.40;;;;;;;;;;5039789;28;20480;-68
2023/10/29 00:10:54;;;;;;;2.70;1.43;;;;;;;;;;5043622;28;20796;-68
2023/10/29 00:13:25;;;;;;;2.27;1.20;;;;;;;;;;5042376;28;20433;-68
2023/10/29 00:15:52;;;;;;;2.83;1.37;;;;;;;;;;5039682;28;20425;-68
2023/10/29 00:18:24;;;;;;;1.80;1.00;;;;;;;;;;5038722;28;20447;-68
2023/10/29 00:20:51;;;;;;;1.83;1.17;;;;;;;;;;5044852;28;20456;-68
2023/10/29 00:23:18;;;;;;;1.17;1.00;;;;;;;;;;5041219;28;20433;-68
2023/10/29 00:25:46;;;;;;;1.83;1.27;;;;;;;;;;5041112;28;20934;-68
2023/10/29 00:28:15;;;;;;;1.25;0.93;;;;;;;;;;5041763;28;20518;-68
2023/10/29 00:30:42;;;;;;;1.80;0.93;;;;;;;;;;5044530;28;20449;-67
2023/10/29 00:33:09;;;;;;;2.22;1.15;;;;;;;;;;5043962;28;20460;-67
2023/10/29 00:35:37;;;;;;;1.90;0.90;;;;;;;;;;5038958;28;20448;-67
2023/10/29 00:38:07;;;;;;;2.60;1.45;;;;;;;;;;5039375;28;20435;-68
2023/10/29 00:40:38;;;;;;;1.25;0.98;;;;;;;;;;5037725;28;20478;-68
2023/10/29 00:43:07;;;;;;;3.10;1.00;;;;;;;;;;5036980;28;20437;-67
2023/10/29 00:45:36;;;;;;;2.15;1.10;;;;;;;;;;5042015;28;20497;-68
2023/10/29 00:48:04;;;;;;;2.40;0.98;;;;;;;;;;5043649;28;20435;-67
2023/10/29 00:50:31;;;;;;;1.30;0.80;;;;;;;;;;5040289;28;20845;-67
2023/10/29 00:52:59;;;;;;;1.02;0.90;;;;;;;;;;5043291;28;20436;-67
2023/10/29 00:55:26;;;;;;;2.92;1.00;;;;;;;;;;5043575;28;20504;-67
2023/10/29 00:57:54;;;;;;;1.80;1.00;;;;;;;;;;5038951;28;20429;-67
2023/10/29 01:00:23;;;;;;;0.95;0.90;;;;;;;;;;5039684;28;20486;-67
2023/10/29 01:02:53;;;;;;;1.63;1.15;;;;;;;;;;5041852;28;20435;-67
2023/10/29 01:05:21;;;;;;;3.90;1.08;;;;;;;;;;5041186;28;20507;-67
2023/10/29 01:07:49;;;;;;;1.07;0.90;;;;;;;;;;5039547;28;20433;-67
2023/10/29 01:10:16;;;;;;;2.17;1.05;;;;;;;;;;5045878;28;20910;-67
2023/10/29 01:12:45;;;;;;;1.77;1.05;;;;;;;;;;5040015;28;20477;-67
2023/10/29 01:15:12;;;;;;;2.40;1.27;;;;;;;;;;5037928;28;20441;-68
2023/10/29 01:17:39;;;;;;;1.80;0.90;;;;;;;;;;5038285;28;20435;-68
2023/10/29 01:20:07;;;;;;;2.17;0.95;;;;;;;;;;5040106;28;20460;-67
2023/10/29 01:22:34;;;;;;;1.33;1.02;;;;;;;;;;5039417;28;20541;-67
2023/10/29 01:25:05;;;;;;;1.75;1.20;;;;;;;;;;5041231;28;20994;-68
2023/10/29 01:27:33;;;;;;;1.20;1.10;;;;;;;;;;5040034;28;20437;-68
2023/10/29 01:30:00;;;;;;;1.17;1.05;;;;;;;;;;5037460;28;20456;-68
2023/10/29 01:32:28;;;;;;;5.87;1.30;;;;;;;;;;5041374;28;20524;-67
2023/10/29 01:34:56;;;;;;;3.40;1.30;;;;;;;;;;5035552;28;20488;-68
2023/10/29 01:37:23;;;;;;;4.05;1.25;;;;;;;;;;5036508;28;20438;-68
2023/10/29 01:39:52;;;;;;;3.85;1.40;;;;;;;;;;5034288;28;20520;-68
2023/10/29 01:42:26;;;;;;;4.93;1.33;;;;;;;;;;5046718;28;21150;-68
2023/10/29 01:44:53;;;;;;;2.20;1.10;;;;;;;;;;5040254;28;20462;-68
2023/10/29 01:47:23;;;;;;;1.90;1.03;;;;;;;;;;5041139;28;20433;-68
2023/10/29 01:49:51;;;;;;;2.50;1.27;;;;;;;;;;5037542;28;20444;-68
2023/10/29 01:52:20;;;;;;;2.30;1.00;;;;;;;;;;5046809;28;20506;-68
2023/10/29 01:54:47;;;;;;;4.88;1.20;;;;;;;;;;5037572;28;20499;-68
2023/10/29 01:57:15;;;;;;;1.10;1.00;;;;;;;;;;5044880;28;20443;-68
2023/10/29 01:59:42;;;;;;;3.05;0.90;;;;;;;;;;5046904;28;20436;-68
2023/10/29 02:02:09;;;;;;;2.72;1.10;;;;;;;;;;5045833;28;20448;-68
2023/10/29 02:04:36;;;;;;;1.13;0.95;;;;;;;;;;5034589;28;20435;-68
2023/10/29 02:07:04;;;;;;;1.98;1.15;;;;;;;;;;5038091;28;20948;-68
2023/10/29 02:09:31;;;;;;;2.65;1.00;;;;;;;;;;5045781;28;20456;-68
2023/10/29 02:11:58;;;;;;;1.40;1.05;;;;;;;;;;5044302;28;20520;-68
2023/10/29 02:14:25;;;;;;;1.33;1.00;;;;;;;;;;5043869;28;20911;-68
2023/10/29 02:16:52;;;;;;;1.10;1.00;;;;;;;;;;5044610;28;20524;-68
2023/10/29 02:19:20;;;;;;;1.80;1.02;;;;;;;;;;5045391;28;20425;-68
2023/10/29 02:21:47;;;;;;;1.00;0.90;;;;;;;;;;5041555;28;20429;-69
2023/10/29 02:24:14;;;;;;;1.60;1.05;;;;;;;;;;5043298;28;20527;-68
2023/10/29 02:26:44;;;;;;;1.40;0.90;;;;;;;;;;5045259;28;20451;-68
2023/10/29 02:29:14;;;;;;;3.37;1.10;;;;;;;;;;5044740;28;20903;-68
2023/10/29 02:31:41;;;;;;;1.98;1.00;;;;;;;;;;5047284;28;20473;-69
2023/10/29 02:34:08;;;;;;;1.90;1.00;;;;;;;;;;5035667;28;20446;-68
2023/10/29 02:36:38;;;;;;;1.80;1.20;;;;;;;;;;5040196;28;20428;-68
2023/10/29 02:39:06;;;;;;;3.38;0.95;;;;;;;;;;5043715;28;20498;-68
2023/10/29 02:41:33;;;;;;;2.25;1.10;;;;;;;;;;5037452;28;20514;-67
2023/10/29 02:44:00;;;;;;;2.72;1.10;;;;;;;;;;5043223;28;20444;-68
2023/10/29 02:46:30;;;;;;;2.25;1.20;;;;;;;;;;5041661;28;20918;-70
2023/10/29 02:48:57;;;;;;;2.22;0.90;;;;;;;;;;5036807;28;20525;-68
2023/10/29 02:51:25;;;;;;;2.65;1.23;;;;;;;;;;5043324;28;20439;-68
2023/10/29 02:53:52;;;;;;;1.60;1.20;;;;;;;;;;5042418;28;20457;-68
2023/10/29 02:56:19;;;;;;;1.52;1.27;;;;;;;;;;5038636;28;20793;-67
2023/10/29 02:58:46;;;;;;;2.35;1.65;;;;;;;;;;5042298;28;20425;-68
2023/10/29 03:01:15;;;;;;;1.45;1.17;;;;;;;;;;5045498;28;20429;-68
2023/10/29 03:03:44;;;;;;;2.45;1.45;;;;;;;;;;5042236;28;20483;-68
2023/10/29 03:06:19;;;;;;;1.50;1.30;;;;;;;;;;5038623;28;20834;-67
2023/10/29 03:08:46;;;;;;;2.70;1.30;;;;;;;;;;5041818;28;20433;-68
2023/10/29 03:11:14;;;;;;;1.75;1.23;;;;;;;;;;5042973;28;20432;-68
2023/10/29 03:13:41;;;;;;;3.47;1.40;;;;;;;;;;5043046;28;20854;-68
2023/10/29 03:16:08;;;;;;;2.20;1.52;;;;;;;;;;5041527;28;20494;-69
2023/10/29 03:18:38;;;;;;;1.40;1.30;;;;;;;;;;5044407;28;20783;-68
2023/10/29 03:21:06;;;;;;;1.42;1.20;;;;;;;;;;5043713;28;20433;-68
2023/10/29 03:23:35;;;;;;;2.50;1.10;;;;;;;;;;5038289;28;20440;-68
2023/10/29 03:26:03;;;;;;;1.75;1.10;;;;;;;;;;5047014;28;20849;-68
2023/10/29 03:28:30;;;;;;;5.40;0.98;;;;;;;;;;5040842;28;20434;-68
2023/10/29 03:30:57;;;;;;;2.00;1.02;;;;;;;;;;5045791;28;20467;-68
2023/10/29 03:33:24;;;;;;;2.10;1.17;;;;;;;;;;5043644;28;20524;-68
2023/10/29 03:35:52;;;;;;;2.57;1.20;;;;;;;;;;5037974;28;20438;-68
2023/10/29 03:38:19;;;;;;;2.90;1.30;;;;;;;;;;5043412;28;20433;-68
2023/10/29 03:40:46;;;;;;;2.92;1.20;;;;;;;;;;5036834;28;20784;-68
2023/10/29 03:43:13;;;;;;;2.05;1.38;;;;;;;;;;5038755;28;20468;-68
2023/10/29 03:45:40;;;;;;;3.63;1.15;;;;;;;;;;5044549;28;20432;-68
2023/10/29 03:48:12;;;;;;;2.40;1.38;;;;;;;;;;5042724;28;20444;-68
2023/10/29 03:50:42;;;;;;;2.92;1.20;;;;;;;;;;5038903;28;20437;-68
2023/10/29 03:53:09;;;;;;;1.65;1.10;;;;;;;;;;5042490;28;20461;-68
2023/10/29 03:55:37;;;;;;;1.20;1.10;;;;;;;;;;5040630;28;20632;-68
2023/10/29 03:58:07;;;;;;;1.10;1.00;;;;;;;;;;5043363;28;20461;-68
2023/10/29 04:00:34;;;;;;;1.40;1.30;;;;;;;;;;5044469;28;21237;-68
2023/10/29 04:03:07;;;;;;;2.20;1.10;;;;;;;;;;5041242;28;20907;-68
2023/10/29 04:05:36;;;;;;;3.65;1.33;;;;;;;;;;5045064;28;20438;-68
2023/10/29 04:08:04;;;;;;;3.00;1.30;;;;;;;;;;5042531;28;20435;-68
2023/10/29 04:10:34;;;;;;;2.08;1.30;;;;;;;;;;5038603;28;20491;-68
2023/10/29 04:13:01;;;;;;;2.50;1.40;;;;;;;;;;5039660;28;20441;-67
2023/10/29 04:15:28;;;;;;;3.30;1.40;;;;;;;;;;5044262;28;20433;-68
2023/10/29 04:17:55;;;;;;;2.28;1.40;;;;;;;;;;5038169;28;20926;-68
2023/10/29 04:20:23;;;;;;;2.90;1.40;;;;;;;;;;5040882;28;20436;-68
2023/10/29 04:22:50;;;;;;;2.85;1.27;;;;;;;;;;5044940;28;21006;-67
2023/10/29 04:25:17;;;;;;;1.20;1.00;;;;;;;;;;5039462;28;20432;-67
2023/10/29 04:27:47;;;;;;;1.90;1.30;;;;;;;;;;5038644;28;20439;-67
2023/10/29 04:30:17;;;;;;;3.03;1.10;;;;;;;;;;5047758;28;20512;-68
2023/10/29 04:32:51;;;;;;;2.40;1.10;;;;;;;;;;5043677;28;20433;-67
2023/10/29 04:35:18;;;;;;;1.50;1.10;;;;;;;;;;5041892;28;20946;-68
2023/10/29 04:37:45;;;;;;;1.25;1.10;;;;;;;;;;5041095;28;20440;-68
2023/10/29 04:40:15;;;;;;;1.13;1.00;;;;;;;;;;5040861;28;20491;-68
2023/10/29 04:42:43;;;;;;;1.70;1.10;;;;;;;;;;5041439;28;20441;-68
2023/10/29 04:45:11;;;;;;;3.80;1.08;;;;;;;;;;5039365;28;20437;-68
2023/10/29 04:47:41;;;;;;;1.85;1.00;;;;;;;;;;5039722;28;20441;-68
2023/10/29 04:50:08;;;;;;;1.10;1.00;;;;;;;;;;5033608;28;20441;-68
2023/10/29 04:52:38;;;;;;;2.33;0.93;;;;;;;;;;5043448;28;20446;-68
2023/10/29 04:55:05;;;;;;;1.38;1.00;;;;;;;;;;5035940;28;21488;-68
2023/10/29 04:57:33;;;;;;;1.17;1.00;;;;;;;;;;5043690;28;20508;-68
2023/10/29 05:00:00;;;;;;;3.22;1.40;;;;;;;;;;5035527;28;20453;-69
2023/10/29 05:02:29;;;;;;;1.75;1.25;;;;;;;;;;5043781;28;20607;-69
2023/10/29 05:04:56;;;;;;;1.90;1.20;;;;;;;;;;5042324;28;20510;-69
2023/10/29 05:07:23;;;;;;;2.40;1.25;;;;;;;;;;5038187;28;20436;-70
2023/10/29 05:09:51;;;;;;;2.67;1.25;;;;;;;;;;5035933;28;20447;-69
2023/10/29 05:12:21;;;;;;;2.30;1.40;;;;;;;;;;5030678;28;20429;-69
2023/10/29 05:14:51;;;;;;;1.40;1.30;;;;;;;;;;5036637;28;20466;-70
2023/10/29 05:17:18;;;;;;;1.58;1.10;;;;;;;;;;5034874;28;20460;-70
2023/10/29 05:19:45;;;;;;;2.60;1.50;;;;;;;;;;5028937;28;20526;-70
2023/10/29 05:22:12;;;;;;;2.08;1.50;;;;;;;;;;5033778;28;20429;-69
2023/10/29 05:24:40;;;;;;;2.75;1.60;;;;;;;;;;5041262;28;20438;-70
2023/10/29 05:27:07;;;;;;;2.30;1.23;;;;;;;;;;5041132;28;20512;-69
2023/10/29 05:29:34;;;;;;;1.30;1.20;;;;;;;;;;5041835;28;20429;-69
2023/10/29 05:32:03;;;;;;;1.50;1.40;;;;;;;;;;5043037;28;20831;-70
2023/10/29 05:34:30;;;;;;;2.10;1.30;;;;;;;;;;5035567;28;20953;-69
2023/10/29 05:36:57;;;;;;;2.92;1.83;;;;;;;;;;5034404;28;20437;-70
2023/10/29 05:39:24;;;;;;;1.40;1.30;;;;;;;;;;5041235;28;20994;-70
2023/10/29 05:41:51;;;;;;;2.00;1.30;;;;;;;;;;5044890;28;20503;-70
2023/10/29 05:44:22;;;;;;;1.67;1.58;;;;;;;;;;5040687;28;20421;-70
2023/10/29 05:46:49;;;;;;;3.67;1.30;;;;;;;;;;5041291;28;21001;-70
2023/10/29 05:49:16;;;;;;;1.20;1.20;;;;;;;;;;5042228;28;20479;-70
2023/10/29 05:51:43;;;;;;;1.93;1.50;;;;;;;;;;5043368;28;20495;-70
2023/10/29 05:54:10;;;;;;;1.40;1.30;;;;;;;;;;5045184;28;20429;-70
2023/10/29 05:56:41;;;;;;;3.35;1.70;;;;;;;;;;5046559;28;20437;-71
2023/10/29 05:59:08;;;;;;;1.30;1.20;;;;;;;;;;5042036;28;20812;-71
2023/10/29 06:01:37;;;;;;;2.20;1.38;;;;;;;;;;5040657;28;20448;-72
2023/10/29 06:04:05;;;;;;;2.15;1.35;;;;;;;;;;5038340;28;20459;-72
2023/10/29 06:06:32;;;;;;;1.85;1.38;;;;;;;;;;5033230;28;20442;-72
2023/10/29 06:09:00;;;;;;;1.85;1.58;;;;;;;;;;5020651;28;20442;-72
2023/10/29 06:11:43;;;;;;;3.00;1.40;;;;;;;;;;5033576;28;20485;-73
2023/10/29 06:14:10;;;;;;;2.20;1.38;;;;;;;;;;5039832;28;20938;-73
2023/10/29 06:16:37;;;;;;;2.15;1.40;;;;;;;;;;5036773;28;20516;-73
2023/10/29 06:19:05;;;;;;;2.95;1.60;;;;;;;;;;5031601;28;20436;-73
2023/10/29 06:21:32;;;;;;;2.33;1.30;;;;;;;;;;5041098;28;20433;-72
2023/10/29 06:24:00;;;;;;;1.88;1.40;;;;;;;;;;5042878;28;20431;-71
2023/10/29 06:26:27;;;;;;;1.92;1.50;;;;;;;;;;5038065;28;20842;-71
2023/10/29 06:28:54;;;;;;;1.60;1.50;;;;;;;;;;5041242;28;20436;-70
2023/10/29 06:31:28;;;;;;;4.10;1.60;;;;;;;;;;5041679;28;20493;-73
2023/10/29 06:33:55;;;;;;;4.35;1.80;;;;;;;;;;5042245;28;20439;-72
2023/10/29 06:36:25;;;;;;;1.92;1.50;;;;;;;;;;5043992;28;20435;-72
2023/10/29 06:38:59;;;;;;;1.85;1.38;;;;;;;;;;5039375;28;20520;-72
2023/10/29 06:41:26;;;;;;;2.85;1.90;;;;;;;;;;5046399;28;20455;-71
2023/10/29 06:43:55;;;;;;;2.30;1.60;;;;;;;;;;5039479;28;20481;-71
2023/10/29 06:46:25;;;;;;;1.73;1.42;;;;;;;;;;5038411;28;20838;-70
2023/10/29 06:48:52;;;;;;;1.85;1.33;;;;;;;;;;5033839;28;20524;-70
2023/10/29 06:51:22;;;;;;;1.92;1.40;;;;;;;;;;5033258;28;20445;-70
2023/10/29 06:53:49;;;;;;;1.45;1.27;;;;;;;;;;5043516;28;20548;-71
2023/10/29 06:56:16;;;;;;;2.67;1.30;;;;;;;;;;5043092;28;20457;-70
2023/10/29 06:58:43;;;;;;;1.77;1.20;;;;;;;;;;5044439;28;20439;-71
2023/10/29 07:01:11;;;;;;;1.27;1.05;;;;;;;;;;5041838;28;20433;-69
2023/10/29 07:03:42;;;;;;;1.55;1.10;;;;;;;;;;5041820;28;21740;-70
2023/10/29 07:06:11;;;;;;;1.60;0.90;;;;;;;;;;5036853;28;20452;-70
2023/10/29 07:08:38;;;;;;;1.20;0.90;;;;;;;;;;5043277;28;20440;-70
2023/10/29 07:11:06;;;;;;;2.10;1.20;;;;;;;;;;5029510;28;20472;-70
2023/10/29 07:13:34;;;;;;;2.60;1.02;;;;;;;;;;5036413;28;20524;-70
2023/10/29 07:16:03;;;;;;;1.08;0.95;;;;;;;;;;5034938;28;20437;-70
2023/10/29 07:18:32;;;;;;;1.40;1.08;;;;;;;;;;5037643;28;20429;-70
2023/10/29 07:21:00;;;;;;;1.38;1.02;;;;;;;;;;5031092;28;20443;-69
2023/10/29 07:23:27;;;;;;;2.35;1.33;;;;;;;;;;5042913;28;20937;-70
2023/10/29 07:25:54;;;;;;;1.90;0.90;;;;;;;;;;5035199;28;20495;-70
2023/10/29 07:28:22;;;;;;;1.55;1.00;;;;;;;;;;5038021;28;20436;-70
2023/10/29 07:30:49;;;;;;;2.50;1.10;;;;;;;;;;5041243;28;20491;-70
2023/10/29 07:33:16;;;;;;;1.10;0.90;;;;;;;;;;5041173;28;20450;-70
2023/10/29 07:35:45;;;;;;;1.85;1.15;;;;;;;;;;5041834;28;20506;-69
2023/10/29 07:38:12;;;;;;;1.67;0.90;;;;;;;;;;5036901;28;20437;-69
2023/10/29 07:40:39;;;;;;;1.25;0.95;;;;;;;;;;5037061;28;20467;-70
2023/10/29 07:43:07;;;;;;;3.37;0.90;;;;;;;;;;5039181;28;20809;-70
2023/10/29 07:45:34;;;;;;;1.70;0.80;;;;;;;;;;5039463;28;20438;-70
2023/10/29 07:48:01;;;;;;;0.93;0.93;;;;;;;;;;5041932;28;20522;-69
2023/10/29 07:50:30;;;;;;;1.02;0.85;;;;;;;;;;5038174;28;20467;-69
2023/10/29 07:52:57;;;;;;;2.35;1.00;;;;;;;;;;5037049;28;20470;-69
2023/10/29 07:55:24;;;;;;;2.20;0.90;;;;;;;;;;5043351;28;20433;-69
2023/10/29 07:57:54;;;;;;;2.83;1.13;;;;;;;;;;5038335;28;20903;-70
2023/10/29 08:00:22;;;;;;;1.60;1.00;;;;;;;;;;5037156;28;20850;-70
2023/10/29 08:02:49;;;;;;;4.55;1.30;;;;;;;;;;5036954;28;20433;-69
2023/10/29 08:05:16;;;;;;;2.27;1.20;;;;;;;;;;5039542;28;20439;-69
2023/10/29 08:07:43;;;;;;;2.90;1.50;;;;;;;;;;5035846;28;20919;-69
2023/10/29 08:10:13;;;;;;;3.80;1.17;;;;;;;;;;5035749;28;20508;-70
2023/10/29 08:12:40;;;;;;;2.40;1.20;;;;;;;;;;5037122;28;20437;-70
2023/10/29 08:15:07;;;;;;;2.05;1.10;;;;;;;;;;5037817;28;20451;-70
2023/10/29 08:17:34;;;;;;;3.22;1.10;;;;;;;;;;5042435;28;20427;-70
2023/10/29 08:20:02;;;;;;;3.20;1.10;;;;;;;;;;5042875;28;20441;-70
2023/10/29 08:22:29;;;;;;;2.63;1.00;;;;;;;;;;5041582;28;20502;-69
2023/10/29 08:24:57;;;;;;;0.98;0.90;;;;;;;;;;5038508;28;20429;-69
2023/10/29 08:27:24;;;;;;;1.35;1.05;;;;;;;;;;5039621;28;20433;-70
2023/10/29 08:29:51;;;;;;;1.45;0.80;;;;;;;;;;5041209;28;20973;-69
2023/10/29 08:32:18;;;;;;;2.40;1.07;;;;;;;;;;5042134;28;21079;-70
2023/10/29 08:34:45;;;;;;;1.73;0.97;;;;;;;;;;5039038;28;20449;-69
2023/10/29 08:37:13;;;;;;;1.20;0.90;;;;;;;;;;5034206;28;20495;-69
2023/10/29 08:39:41;;;;;;;1.93;1.30;;;;;;;;;;5039010;28;20433;-69
2023/10/29 08:42:08;;;;;;;2.33;1.00;;;;;;;;;;5044510;28;20429;-69
2023/10/29 08:44:35;;;;;;;2.33;1.02;;;;;;;;;;5038699;28;20435;-69
2023/10/29 08:47:03;;;;;;;2.25;1.20;;;;;;;;;;5038255;28;20786;-69
2023/10/29 08:49:30;;;;;;;2.95;0.98;;;;;;;;;;5038917;28;20797;-70
2023/10/29 08:51:57;;;;;;;2.40;1.10;;;;;;;;;;5042191;28;20469;-69
2023/10/29 08:54:24;;;;;;;1.65;0.90;;;;;;;;;;5039465;28;20442;-70
2023/10/29 08:56:54;;;;;;;1.90;0.90;;;;;;;;;;5039191;28;20556;-70
2023/10/29 08:59:22;;;;;;;2.53;1.10;;;;;;;;;;5036153;28;20466;-70
2023/10/29 09:01:49;;;;;;;2.30;0.93;;;;;;;;;;5040570;28;20508;-70
2023/10/29 09:04:16;;;;;;;1.27;0.90;;;;;;;;;;5042387;28;20432;-70
2023/10/29 09:06:43;;;;;;;2.08;0.90;;;;;;;;;;5035750;28;20815;-70
2023/10/29 09:09:12;;;;;;;1.90;0.70;;;;;;;;;;5039653;28;20528;-70
2023/10/29 09:11:44;;;;;;;1.55;1.05;;;;;;;;;;5040602;28;20799;-70
2023/10/29 09:14:13;;;;;;;2.13;0.90;;;;;;;;;;5038010;28;21145;-70
2023/10/29 09:16:40;;;;;;;0.88;0.70;;;;;;;;;;5038933;28;20433;-69
2023/10/29 09:19:08;;;;;;;1.55;0.88;;;;;;;;;;5042038;28;20491;-70
2023/10/29 09:21:35;;;;;;;2.05;1.00;;;;;;;;;;5038671;28;20518;-70
2023/10/29 09:24:02;;;;;;;2.35;1.00;;;;;;;;;;5035639;28;20507;-69
2023/10/29 09:26:31;;;;;;;1.00;0.90;;;;;;;;;;5034506;28;21006;-70
2023/10/29 09:29:00;;;;;;;1.60;0.93;;;;;;;;;;5035241;28;20974;-69
2023/10/29 09:31:28;;;;;;;2.33;1.00;;;;;;;;;;5043159;28;20440;-70
2023/10/29 09:33:55;;;;;;;1.40;0.80;;;;;;;;;;5038059;28;20460;-70
2023/10/29 09:36:22;;;;;;;1.25;1.02;;;;;;;;;;5036742;28;20904;-69
2023/10/29 09:38:49;;;;;;;1.13;0.87;;;;;;;;;;5031782;28;20471;-69
2023/10/29 09:41:20;;;;;;;2.80;1.10;;;;;;;;;;5038610;28;20776;-69
2023/10/29 09:43:47;;;;;;;1.60;1.02;;;;;;;;;;5032285;28;20511;-69
2023/10/29 09:46:14;;;;;;;1.80;0.93;;;;;;;;;;5041415;28;20433;-69
2023/10/29 09:48:44;;;;;;;3.05;1.60;;;;;;;;;;5038371;28;20516;-69
2023/10/29 09:51:15;;;;;;;1.33;1.08;;;;;;;;;;5035491;28;20441;-69
2023/10/29 09:53:42;;;;;;;2.00;1.30;;;;;;;;;;5038092;28;20536;-70
2023/10/29 09:56:10;;;;;;;2.70;1.10;;;;;;;;;;5037891;28;20440;-70
2023/10/29 09:58:38;;;;;;;1.10;0.93;;;;;;;;;;5044148;28;20431;-69
2023/10/29 10:01:06;;;;;;;1.50;0.90;;;;;;;;;;5044113;28;20453;-70
2023/10/29 10:03:33;;;;;;;2.17;1.00;;;;;;;;;;5042324;28;20982;-70
2023/10/29 10:06:01;;;;;;;1.50;0.80;;;;;;;;;;5038107;28;20494;-69
2023/10/29 10:08:29;;;;;;;2.13;1.00;;;;;;;;;;5038807;28;20783;-70
2023/10/29 10:10:56;;;;;;;1.48;0.80;;;;;;;;;;5044291;28;20525;-69
2023/10/29 10:13:41;;;;;;;0.98;0.90;;;;;;;;;;5037178;28;20433;-69
2023/10/29 10:16:10;;;;;;;1.60;1.03;;;;;;;;;;5038994;28;22266;-69
2023/10/29 10:18:52;;;;;;;1.45;0.77;;;;;;;;;;5037991;28;20771;-69
2023/10/29 10:21:24;;;;;;;1.20;0.80;;;;;;;;;;5039224;28;20483;-69
2023/10/29 10:23:55;;;;;;;2.08;1.10;;;;;;;;;;5037312;28;20429;-72
2023/10/29 10:26:35;;;;;;;1.65;1.10;;;;;;;;;;5042049;28;20815;-69
2023/10/29 10:29:07;;;;;;;1.63;0.90;;;;;;;;;;5039308;28;20433;-68
2023/10/29 10:31:35;;;;;;;1.30;0.90;;;;;;;;;;5041128;28;20958;-68
2023/10/29 10:34:16;;;;;;;1.80;0.90;;;;;;;;;;5041681;28;20429;-68
2023/10/29 10:36:49;;;;;;;2.50;0.80;;;;;;;;;;5039533;28;20483;-68
2023/10/29 10:39:21;;;;;;;1.80;0.90;;;;;;;;;;5039850;28;20468;-68
2023/10/29 10:41:49;;;;;;;1.10;0.90;;;;;;;;;;5038693;28;20443;-68
2023/10/29 10:44:18;;;;;;;1.05;1.02;;;;;;;;;;5039413;28;20437;-68
2023/10/29 10:46:48;;;;;;;1.45;1.00;;;;;;;;;;5043594;28;20523;-67
2023/10/29 10:49:16;;;;;;;1.20;0.90;;;;;;;;;;5043120;28;20447;-68
2023/10/29 10:51:44;;;;;;;3.30;0.90;;;;;;;;;;5037713;28;20527;-68
2023/10/29 10:54:15;;;;;;;1.10;0.90;;;;;;;;;;5039277;28;20441;-69
2023/10/29 10:56:44;;;;;;;0.90;0.90;;;;;;;;;;5043630;28;20440;-68
2023/10/29 10:59:13;;;;;;;1.27;0.90;;;;;;;;;;5041101;28;20787;-68
2023/10/29 11:01:40;;;;;;;1.30;0.98;;;;;;;;;;5040331;28;20440;-68
2023/10/29 11:04:10;;;;;;;3.20;0.90;;;;;;;;;;5040578;28;20962;-68
2023/10/29 11:06:38;;;;;;;2.75;1.05;;;;;;;;;;5040589;28;20464;-68
2023/10/29 11:09:12;;;;;;;0.98;0.90;;;;;;;;;;5042562;28;20452;-68
2023/10/29 11:11:43;;;;;;;1.63;0.90;;;;;;;;;;5035459;28;20448;-68
2023/10/29 11:14:17;;;;;;;1.48;1.25;;;;;;;;;;5038422;28;21137;-68
2023/10/29 11:16:45;;;;;;;2.22;1.20;;;;;;;;;;5040149;28;20835;-68
2023/10/29 11:19:31;;;;;;;1.95;1.20;;;;;;;;;;5038817;28;20425;-68
2023/10/29 11:22:14;;;;;;;3.08;1.10;;;;;;;;;;5037609;28;20437;-68
2023/10/29 11:24:41;;;;;;;3.70;1.20;;;;;;;;;;5033276;28;20441;-68
2023/10/29 11:27:27;;;;;;;2.38;1.05;;;;;;;;;;5036552;28;20932;-68
2023/10/29 11:30:10;;;;;;;1.30;1.20;;;;;;;;;;5042228;28;20893;-68
2023/10/29 11:32:37;;;;;;;1.57;1.40;;;;;;;;;;5042422;28;21011;-68
2023/10/29 11:35:20;;;;;;;1.55;1.30;;;;;;;;;;5041813;28;20435;-68
2023/10/29 11:37:48;;;;;;;1.10;1.00;;;;;;;;;;5040770;28;20440;-68
2023/10/29 11:40:36;;;;;;;2.40;1.05;;;;;;;;;;5038687;28;20439;-68
2023/10/29 11:43:17;;;;;;;1.30;0.93;;;;;;;;;;5034577;28;20911;-69
2023/10/29 11:45:54;;;;;;;0.80;0.80;;;;;;;;;;5043956;28;20431;-68
2023/10/29 11:48:21;;;;;;;1.48;0.75;;;;;;;;;;5043120;28;20448;-69
2023/10/29 11:51:08;;;;;;;1.02;0.90;;;;;;;;;;5042732;28;20435;-69
2023/10/29 11:53:36;;;;;;;3.58;1.73;;;;;;;;;;5036998;28;20793;-69
2023/10/29 11:56:06;;;;;;;2.78;1.10;;;;;;;;;;5035053;28;20524;-68
2023/10/29 11:58:33;;;;;;;1.75;0.80;;;;;;;;;;5042416;28;20426;-69
2023/10/29 12:01:00;;;;;;;2.85;0.93;;;;;;;;;;5046087;28;20429;-69
2023/10/29 12:03:29;;;;;;;0.80;0.80;;;;;;;;;;5047768;28;20512;-68
2023/10/29 12:05:57;;;;;;;1.20;0.70;;;;;;;;;;5041282;28;21151;-69
2023/10/29 12:08:26;;;;;;;0.93;0.80;;;;;;;;;;5037738;28;20871;-69
2023/10/29 12:10:56;;;;;;;0.80;0.80;;;;;;;;;;5037915;28;20425;-69
2023/10/29 12:13:23;;;;;;;0.93;0.90;;;;;;;;;;5044491;28;20658;-69
2023/10/29 12:15:58;;;;;;;0.93;0.93;;;;;;;;;;5044945;28;20435;-69
2023/10/29 12:18:25;;;;;;;1.90;1.15;;;;;;;;;;5041501;28;20437;-69
2023/10/29 12:21:04;;;;;;;1.33;1.23;;;;;;;;;;5039642;28;20490;-69
2023/10/29 12:23:31;;;;;;;1.95;1.40;;;;;;;;;;5042749;28;20429;-69
2023/10/29 12:26:01;;;;;;;2.88;1.60;;;;;;;;;;5040606;28;20520;-70
2023/10/29 12:28:28;;;;;;;2.65;1.42;;;;;;;;;;5040509;28;20439;-69
2023/10/29 12:30:57;;;;;;;1.70;1.40;;;;;;;;;;5040676;28;22625;-68
2023/10/29 12:33:26;;;;;;;1.90;1.65;;;;;;;;;;5039374;28;20462;-68
2023/10/29 12:36:01;;;;;;;2.17;1.60;;;;;;;;;;5044582;28;20439;-69
2023/10/29 12:38:28;;;;;;;2.47;1.55;;;;;;;;;;5035452;28;20433;-68
2023/10/29 12:41:08;;;;;;;1.80;1.48;;;;;;;;;;5038599;28;20435;-69
2023/10/29 12:43:42;;;;;;;2.00;1.45;;;;;;;;;;5039964;28;20435;-69
2023/10/29 12:46:10;;;;;;;1.67;1.45;;;;;;;;;;5038330;28;20918;-70
2023/10/29 12:49:04;;;;;;;1.38;1.33;;;;;;;;;;5039912;28;20441;-71
2023/10/29 12:51:32;;;;;;;1.38;1.05;;;;;;;;;;5039306;28;20535;-71
2023/10/29 12:54:12;;;;;;;2.38;0.90;;;;;;;;;;5041957;28;20492;-70
2023/10/29 12:56:51;;;;;;;1.67;1.00;;;;;;;;;;5043022;28;20479;-69
2023/10/29 12:59:22;;;;;;;1.20;1.10;;;;;;;;;;5036016;28;21202;-71
2023/10/29 13:01:57;;;;;;;1.10;1.10;;;;;;;;;;5040764;28;20427;-70
2023/10/29 13:04:24;;;;;;;1.50;1.17;;;;;;;;;;5034414;28;20722;-70
2023/10/29 13:06:56;;;;;;;1.70;1.05;;;;;;;;;;5040640;28;20522;-69
2023/10/29 13:09:24;;;;;;;1.48;1.45;;;;;;;;;;5042588;28;20429;-69
2023/10/29 13:11:52;;;;;;;1.58;1.48;;;;;;;;;;5038697;28;20812;-70
2023/10/29 13:14:22;;;;;;;2.20;1.00;;;;;;;;;;5044860;28;20948;-70
2023/10/29 13:16:53;;;;;;;1.17;1.17;;;;;;;;;;5035125;28;20452;-70
2023/10/29 13:19:21;;;;;;;1.00;1.00;;;;;;;;;;5039815;28;20528;-69
2023/10/29 13:21:52;;;;;;;1.25;1.20;;;;;;;;;;5041139;28;20519;-70
2023/10/29 13:24:20;;;;;;;4.68;2.53;;;;;;;;;;5043876;28;20457;-69
2023/10/29 13:26:47;;;;;;;4.18;3.78;;;;;;;;;;5045324;28;20923;-70
2023/10/29 13:29:15;;;;;;;2.63;2.53;;;;;;;;;;5045972;28;20516;-70
2023/10/29 13:31:43;;;;;;;3.05;2.00;;;;;;;;;;5046976;28;20915;-69
2023/10/29 13:34:10;;;;;;;2.25;2.10;;;;;;;;;;5049222;28;21304;-70
2023/10/29 13:36:37;;;;;;;1.90;1.80;;;;;;;;;;5037772;28;20444;-70
2023/10/29 13:39:16;;;;;;;1.38;1.27;;;;;;;;;;5046737;28;20584;-69
2023/10/29 13:41:48;;;;;;;1.42;1.33;;;;;;;;;;5047309;28;20431;-71
2023/10/29 13:44:16;;;;;;;2.38;2.20;;;;;;;;;;5045135;28;20433;-71
2023/10/29 13:46:44;;;;;;;1.73;1.60;;;;;;;;;;5047440;28;20430;-70
2023/10/29 13:49:11;;;;;;;1.77;1.27;;;;;;;;;;5051053;28;21067;-72
2023/10/29 13:51:39;;;;;;;0.90;0.90;;;;;;;;;;5050923;28;20819;-72
2023/10/29 13:54:08;;;;;;;1.93;1.03;;;;;;;;;;5050393;28;20433;-71
2023/10/29 13:56:35;;;;;;;1.80;1.10;;;;;;;;;;5042243;28;20437;-70
2023/10/29 13:59:03;;;;;;;1.50;1.40;;;;;;;;;;5044746;28;20433;-73
2023/10/29 14:01:30;;;;;;;1.30;1.02;;;;;;;;;;5046802;28;20495;-72
2023/10/29 14:03:58;;;;;;;1.40;1.10;;;;;;;;;;5050143;28;21488;-73
2023/10/29 14:06:26;;;;;;;0.80;0.80;;;;;;;;;;5051558;28;20425;-75
2023/10/29 14:08:53;;;;;;;1.10;0.88;;;;;;;;;;5049425;28;20502;-75
2023/10/29 14:11:21;;;;;;;2.08;0.82;;;;;;;;;;5046958;28;20439;-75
2023/10/29 14:13:51;;;;;;;1.15;1.15;;;;;;;;;;5048140;28;20521;-74
2023/10/29 14:16:18;;;;;;;1.00;1.00;;;;;;;;;;5048991;28;20425;-75
2023/10/29 14:18:48;;;;;;;0.85;0.85;;;;;;;;;;5049249;28;20498;-75
2023/10/29 14:21:15;;;;;;;1.45;1.10;;;;;;;;;;5049760;28;20437;-74
2023/10/29 14:23:45;;;;;;;0.70;0.70;;;;;;;;;;5049648;28;20490;-73
2023/10/29 14:26:12;;;;;;;0.70;0.70;;;;;;;;;;5044611;28;20792;-73
2023/10/29 14:28:39;;;;;;;0.60;0.50;;;;;;;;;;5048128;28;20437;-74
2023/10/29 14:31:06;;;;;;;1.40;0.57;;;;;;;;;;5037610;28;20942;-72
2023/10/29 14:33:36;;;;;;;0.60;0.50;;;;;;;;;;5050076;28;20519;-73
2023/10/29 14:36:06;;;;;;;0.50;0.50;;;;;;;;;;5047541;28;20433;-73
2023/10/29 14:38:33;;;;;;;0.70;0.60;;;;;;;;;;5047999;28;20907;-73
2023/10/29 14:41:00;;;;;;;0.60;0.60;;;;;;;;;;5042590;28;20478;-72
2023/10/29 14:43:28;;;;;;;0.40;0.40;;;;;;;;;;5049827;28;20998;-73
2023/10/29 14:45:55;;;;;;;1.60;0.60;;;;;;;;;;5050606;28;20439;-72
2023/10/29 14:48:22;;;;;;;0.73;0.73;;;;;;;;;;5036729;28;20472;-72
2023/10/29 14:50:51;;;;;;;0.98;0.57;;;;;;;;;;5039936;28;20444;-71
2023/10/29 14:53:20;;;;;;;2.00;0.60;;;;;;;;;;5039606;28;20453;-71